sensor_id;sensor_type;location;lat;lon;timestamp;P1;durP1;ratioP1;P2;durP2;ratioP2
11651;SDS011;5882;48.818;9.114;2023-04-28T00:01:35;1.65;;;1.55;;
11651;SDS011;5882;48.818;9.114;2023-04-28T00:04:21;1.77;;;1.67;;
11651;SDS011;5882;48.818;9.114;2023-04-28T00:07:09;1.75;;;1.65;;
11651;SDS011;5882;48.818;9.114;2023-04-28T00:09:55;1.80;;;1.70;;
11651;SDS011;5882;48.818;9.114;2023-04-28T00:12:47;2.45;;;2.22;;
11651;SDS011;5882;48.818;9.114;2023-04-28T00:15:33;2.05;;;1.75;;
11651;SDS011;5882;48.818;9.114;2023-04-28T00:18:19;1.70;;;1.60;;
11651;SDS011;5882;48.818;9.114;2023-04-28T00:21:04;1.58;;;1.40;;
11651;SDS011;5882;48.818;9.114;2023-04-28T00:23:51;1.73;;;1.63;;
11651;SDS011;5882;48.818;9.114;2023-04-28T00:26:37;2.10;;;1.80;;
11651;SDS011;5882;48.818;9.114;2023-04-28T00:29:24;2.78;;;2.08;;
11651;SDS011;5882;48.818;9.114;2023-04-28T00:32:10;1.70;;;1.60;;
11651;SDS011;5882;48.818;9.114;2023-04-28T00:34:56;1.50;;;1.40;;
11651;SDS011;5882;48.818;9.114;2023-04-28T00:37:43;2.00;;;1.80;;
11651;SDS011;5882;48.818;9.114;2023-04-28T00:40:31;1.77;;;1.67;;
11651;SDS011;5882;48.818;9.114;2023-04-28T00:43:19;1.42;;;1.33;;
11651;SDS011;5882;48.818;9.114;2023-04-28T00:46:06;1.73;;;1.63;;
11651;SDS011;5882;48.818;9.114;2023-04-28T00:48:52;1.70;;;1.60;;
11651;SDS011;5882;48.818;9.114;2023-04-28T00:51:38;1.65;;;1.55;;
11651;SDS011;5882;48.818;9.114;2023-04-28T00:54:25;1.63;;;1.52;;
11651;SDS011;5882;48.818;9.114;2023-04-28T00:57:11;1.70;;;1.60;;
11651;SDS011;5882;48.818;9.114;2023-04-28T00:59:57;1.58;;;1.48;;
11651;SDS011;5882;48.818;9.114;2023-04-28T01:02:45;1.90;;;1.58;;
11651;SDS011;5882;48.818;9.114;2023-04-28T01:05:33;1.60;;;1.50;;
11651;SDS011;5882;48.818;9.114;2023-04-28T01:08:23;2.45;;;1.83;;
11651;SDS011;5882;48.818;9.114;2023-04-28T01:11:11;1.65;;;1.55;;
11651;SDS011;5882;48.818;9.114;2023-04-28T01:13:58;1.50;;;1.40;;
11651;SDS011;5882;48.818;9.114;2023-04-28T01:16:43;1.50;;;1.40;;
11651;SDS011;5882;48.818;9.114;2023-04-28T01:19:34;1.52;;;1.42;;
11651;SDS011;5882;48.818;9.114;2023-04-28T01:22:20;2.10;;;1.70;;
11651;SDS011;5882;48.818;9.114;2023-04-28T01:25:09;1.95;;;1.85;;
11651;SDS011;5882;48.818;9.114;2023-04-28T01:27:56;1.63;;;1.52;;
11651;SDS011;5882;48.818;9.114;2023-04-28T01:30:42;2.05;;;1.77;;
11651;SDS011;5882;48.818;9.114;2023-04-28T01:33:28;1.52;;;1.42;;
11651;SDS011;5882;48.818;9.114;2023-04-28T01:36:14;1.50;;;1.40;;
11651;SDS011;5882;48.818;9.114;2023-04-28T01:38:59;1.73;;;1.63;;
11651;SDS011;5882;48.818;9.114;2023-04-28T01:41:46;1.42;;;1.33;;
11651;SDS011;5882;48.818;9.114;2023-04-28T01:44:31;1.33;;;1.23;;
11651;SDS011;5882;48.818;9.114;2023-04-28T01:47:18;1.55;;;1.45;;
11651;SDS011;5882;48.818;9.114;2023-04-28T01:50:22;1.42;;;1.33;;
11651;SDS011;5882;48.818;9.114;2023-04-28T01:53:08;1.50;;;1.40;;
11651;SDS011;5882;48.818;9.114;2023-04-28T01:55:57;1.48;;;1.38;;
11651;SDS011;5882;48.818;9.114;2023-04-28T01:59:02;1.40;;;1.30;;
11651;SDS011;5882;48.818;9.114;2023-04-28T02:01:48;2.95;;;1.50;;
11651;SDS011;5882;48.818;9.114;2023-04-28T02:04:34;1.33;;;1.23;;
11651;SDS011;5882;48.818;9.114;2023-04-28T02:07:19;2.03;;;1.60;;
11651;SDS011;5882;48.818;9.114;2023-04-28T02:10:05;1.65;;;1.55;;
11651;SDS011;5882;48.818;9.114;2023-04-28T02:12:52;1.30;;;1.25;;
11651;SDS011;5882;48.818;9.114;2023-04-28T02:15:40;1.52;;;1.42;;
11651;SDS011;5882;48.818;9.114;2023-04-28T02:18:26;1.30;;;1.23;;
11651;SDS011;5882;48.818;9.114;2023-04-28T02:21:11;1.30;;;1.20;;
11651;SDS011;5882;48.818;9.114;2023-04-28T02:23:57;1.52;;;1.42;;
11651;SDS011;5882;48.818;9.114;2023-04-28T02:26:43;1.77;;;1.67;;
11651;SDS011;5882;48.818;9.114;2023-04-28T02:29:32;1.42;;;1.33;;
11651;SDS011;5882;48.818;9.114;2023-04-28T02:32:19;1.42;;;1.33;;
11651;SDS011;5882;48.818;9.114;2023-04-28T02:35:04;1.45;;;1.35;;
11651;SDS011;5882;48.818;9.114;2023-04-28T02:37:52;1.23;;;1.15;;
11651;SDS011;5882;48.818;9.114;2023-04-28T02:40:41;1.42;;;1.33;;
11651;SDS011;5882;48.818;9.114;2023-04-28T02:43:27;1.83;;;1.50;;
11651;SDS011;5882;48.818;9.114;2023-04-28T02:46:18;1.40;;;1.30;;
11651;SDS011;5882;48.818;9.114;2023-04-28T02:49:06;1.50;;;1.40;;
11651;SDS011;5882;48.818;9.114;2023-04-28T02:52:13;1.35;;;1.25;;
11651;SDS011;5882;48.818;9.114;2023-04-28T02:55:01;1.38;;;1.27;;
11651;SDS011;5882;48.818;9.114;2023-04-28T02:57:47;1.85;;;1.65;;
11651;SDS011;5882;48.818;9.114;2023-04-28T03:00:33;2.65;;;1.70;;
11651;SDS011;5882;48.818;9.114;2023-04-28T03:03:19;1.70;;;1.60;;
11651;SDS011;5882;48.818;9.114;2023-04-28T03:06:06;1.75;;;1.65;;
11651;SDS011;5882;48.818;9.114;2023-04-28T03:08:55;1.92;;;1.80;;
11651;SDS011;5882;48.818;9.114;2023-04-28T03:11:42;2.00;;;1.85;;
11651;SDS011;5882;48.818;9.114;2023-04-28T03:14:31;2.00;;;1.80;;
11651;SDS011;5882;48.818;9.114;2023-04-28T03:17:16;1.77;;;1.67;;
11651;SDS011;5882;48.818;9.114;2023-04-28T03:20:04;1.70;;;1.60;;
11651;SDS011;5882;48.818;9.114;2023-04-28T03:22:57;2.00;;;1.80;;
11651;SDS011;5882;48.818;9.114;2023-04-28T03:25:45;1.88;;;1.73;;
11651;SDS011;5882;48.818;9.114;2023-04-28T03:28:34;1.60;;;1.50;;
11651;SDS011;5882;48.818;9.114;2023-04-28T03:31:20;2.08;;;1.98;;
11651;SDS011;5882;48.818;9.114;2023-04-28T03:34:06;1.90;;;1.80;;
11651;SDS011;5882;48.818;9.114;2023-04-28T03:36:53;1.98;;;1.85;;
11651;SDS011;5882;48.818;9.114;2023-04-28T03:39:42;2.05;;;1.88;;
11651;SDS011;5882;48.818;9.114;2023-04-28T03:42:28;2.33;;;1.90;;
11651;SDS011;5882;48.818;9.114;2023-04-28T03:45:13;1.70;;;1.60;;
11651;SDS011;5882;48.818;9.114;2023-04-28T03:48:00;1.77;;;1.67;;
11651;SDS011;5882;48.818;9.114;2023-04-28T03:50:47;2.20;;;2.00;;
11651;SDS011;5882;48.818;9.114;2023-04-28T03:53:34;1.95;;;1.85;;
11651;SDS011;5882;48.818;9.114;2023-04-28T03:56:25;1.75;;;1.65;;
11651;SDS011;5882;48.818;9.114;2023-04-28T03:59:18;2.95;;;1.90;;
11651;SDS011;5882;48.818;9.114;2023-04-28T04:02:04;1.85;;;1.75;;
11651;SDS011;5882;48.818;9.114;2023-04-28T04:04:51;2.20;;;1.90;;
11651;SDS011;5882;48.818;9.114;2023-04-28T04:07:37;1.92;;;1.83;;
11651;SDS011;5882;48.818;9.114;2023-04-28T04:10:23;1.92;;;1.75;;
11651;SDS011;5882;48.818;9.114;2023-04-28T04:13:10;2.25;;;1.70;;
11651;SDS011;5882;48.818;9.114;2023-04-28T04:15:57;1.88;;;1.60;;
11651;SDS011;5882;48.818;9.114;2023-04-28T04:18:45;1.63;;;1.52;;
11651;SDS011;5882;48.818;9.114;2023-04-28T04:21:36;1.67;;;1.58;;
11651;SDS011;5882;48.818;9.114;2023-04-28T04:24:24;1.65;;;1.55;;
11651;SDS011;5882;48.818;9.114;2023-04-28T04:27:13;1.40;;;1.30;;
11651;SDS011;5882;48.818;9.114;2023-04-28T04:30:01;1.48;;;1.38;;
11651;SDS011;5882;48.818;9.114;2023-04-28T04:32:50;1.52;;;1.42;;
11651;SDS011;5882;48.818;9.114;2023-04-28T04:35:35;1.55;;;1.45;;
11651;SDS011;5882;48.818;9.114;2023-04-28T04:38:27;2.13;;;1.80;;
11651;SDS011;5882;48.818;9.114;2023-04-28T04:41:14;2.22;;;1.67;;
11651;SDS011;5882;48.818;9.114;2023-04-28T04:44:00;1.70;;;1.60;;
11651;SDS011;5882;48.818;9.114;2023-04-28T04:46:50;1.98;;;1.85;;
11651;SDS011;5882;48.818;9.114;2023-04-28T04:49:36;1.77;;;1.67;;
11651;SDS011;5882;48.818;9.114;2023-04-28T04:52:28;1.83;;;1.65;;
11651;SDS011;5882;48.818;9.114;2023-04-28T04:55:14;1.80;;;1.70;;
11651;SDS011;5882;48.818;9.114;2023-04-28T04:57:59;2.15;;;2.00;;
11651;SDS011;5882;48.818;9.114;2023-04-28T05:00:45;1.63;;;1.50;;
11651;SDS011;5882;48.818;9.114;2023-04-28T05:03:34;2.35;;;1.85;;
11651;SDS011;5882;48.818;9.114;2023-04-28T05:06:20;1.90;;;1.75;;
11651;SDS011;5882;48.818;9.114;2023-04-28T05:09:06;2.65;;;2.10;;
11651;SDS011;5882;48.818;9.114;2023-04-28T05:11:52;1.73;;;1.63;;
11651;SDS011;5882;48.818;9.114;2023-04-28T05:14:43;2.00;;;1.80;;
11651;SDS011;5882;48.818;9.114;2023-04-28T05:17:32;1.85;;;1.60;;
11651;SDS011;5882;48.818;9.114;2023-04-28T05:20:30;1.70;;;1.52;;
11651;SDS011;5882;48.818;9.114;2023-04-28T05:23:20;1.52;;;1.42;;
11651;SDS011;5882;48.818;9.114;2023-04-28T05:26:06;1.67;;;1.58;;
11651;SDS011;5882;48.818;9.114;2023-04-28T05:28:51;1.63;;;1.52;;
11651;SDS011;5882;48.818;9.114;2023-04-28T05:31:37;1.55;;;1.45;;
11651;SDS011;5882;48.818;9.114;2023-04-28T05:34:23;1.67;;;1.58;;
11651;SDS011;5882;48.818;9.114;2023-04-28T05:37:22;1.70;;;1.60;;
11651;SDS011;5882;48.818;9.114;2023-04-28T05:40:13;1.70;;;1.60;;
11651;SDS011;5882;48.818;9.114;2023-04-28T05:43:12;1.70;;;1.60;;
11651;SDS011;5882;48.818;9.114;2023-04-28T05:46:05;1.55;;;1.45;;
11651;SDS011;5882;48.818;9.114;2023-04-28T05:49:12;1.40;;;1.30;;
11651;SDS011;5882;48.818;9.114;2023-04-28T05:52:02;1.45;;;1.35;;
11651;SDS011;5882;48.818;9.114;2023-04-28T05:54:53;1.40;;;1.30;;
11651;SDS011;5882;48.818;9.114;2023-04-28T05:57:59;1.40;;;1.30;;
11651;SDS011;5882;48.818;9.114;2023-04-28T06:01:19;2.20;;;1.55;;
11651;SDS011;5882;48.818;9.114;2023-04-28T06:04:37;1.90;;;1.80;;
11651;SDS011;5882;48.818;9.114;2023-04-28T06:07:51;1.40;;;1.30;;
11651;SDS011;5882;48.818;9.114;2023-04-28T06:11:00;1.40;;;1.30;;
11651;SDS011;5882;48.818;9.114;2023-04-28T06:13:46;1.42;;;1.33;;
11651;SDS011;5882;48.818;9.114;2023-04-28T06:16:32;1.23;;;1.23;;
11651;SDS011;5882;48.818;9.114;2023-04-28T06:19:20;1.40;;;1.30;;
11651;SDS011;5882;48.818;9.114;2023-04-28T06:22:05;1.45;;;1.35;;
11651;SDS011;5882;48.818;9.114;2023-04-28T06:24:50;1.42;;;1.33;;
11651;SDS011;5882;48.818;9.114;2023-04-28T06:27:37;1.50;;;1.40;;
11651;SDS011;5882;48.818;9.114;2023-04-28T06:30:23;1.60;;;1.17;;
11651;SDS011;5882;48.818;9.114;2023-04-28T06:33:08;1.35;;;1.25;;
11651;SDS011;5882;48.818;9.114;2023-04-28T06:35:53;1.40;;;1.30;;
11651;SDS011;5882;48.818;9.114;2023-04-28T06:38:40;1.60;;;1.50;;
11651;SDS011;5882;48.818;9.114;2023-04-28T06:41:28;1.48;;;1.38;;
11651;SDS011;5882;48.818;9.114;2023-04-28T06:44:17;1.60;;;1.50;;
11651;SDS011;5882;48.818;9.114;2023-04-28T06:47:06;1.55;;;1.45;;
11651;SDS011;5882;48.818;9.114;2023-04-28T06:49:59;1.50;;;1.40;;
11651;SDS011;5882;48.818;9.114;2023-04-28T06:52:49;1.48;;;1.38;;
11651;SDS011;5882;48.818;9.114;2023-04-28T06:55:36;1.60;;;1.50;;
11651;SDS011;5882;48.818;9.114;2023-04-28T06:58:23;1.63;;;1.52;;
11651;SDS011;5882;48.818;9.114;2023-04-28T07:01:12;1.40;;;1.30;;
11651;SDS011;5882;48.818;9.114;2023-04-28T07:03:59;1.35;;;1.25;;
11651;SDS011;5882;48.818;9.114;2023-04-28T07:06:46;1.90;;;1.80;;
11651;SDS011;5882;48.818;9.114;2023-04-28T07:09:32;1.40;;;1.30;;
11651;SDS011;5882;48.818;9.114;2023-04-28T07:12:19;1.60;;;1.50;;
11651;SDS011;5882;48.818;9.114;2023-04-28T07:15:07;1.35;;;1.25;;
11651;SDS011;5882;48.818;9.114;2023-04-28T07:17:55;1.60;;;1.50;;
11651;SDS011;5882;48.818;9.114;2023-04-28T07:20:42;0.98;;;0.98;;
11651;SDS011;5882;48.818;9.114;2023-04-28T07:23:31;1.40;;;1.30;;
11651;SDS011;5882;48.818;9.114;2023-04-28T07:26:18;1.45;;;1.35;;
11651;SDS011;5882;48.818;9.114;2023-04-28T07:29:05;1.30;;;1.20;;
11651;SDS011;5882;48.818;9.114;2023-04-28T07:31:58;1.58;;;1.42;;
11651;SDS011;5882;48.818;9.114;2023-04-28T07:34:47;1.52;;;1.42;;
11651;SDS011;5882;48.818;9.114;2023-04-28T07:37:33;2.45;;;1.75;;
11651;SDS011;5882;48.818;9.114;2023-04-28T07:40:21;1.55;;;1.42;;
11651;SDS011;5882;48.818;9.114;2023-04-28T07:43:06;1.38;;;1.27;;
11651;SDS011;5882;48.818;9.114;2023-04-28T07:45:51;1.27;;;1.17;;
11651;SDS011;5882;48.818;9.114;2023-04-28T07:48:36;1.40;;;1.30;;
11651;SDS011;5882;48.818;9.114;2023-04-28T07:51:23;1.50;;;1.40;;
11651;SDS011;5882;48.818;9.114;2023-04-28T07:54:08;1.33;;;1.23;;
11651;SDS011;5882;48.818;9.114;2023-04-28T07:56:54;1.30;;;1.20;;
11651;SDS011;5882;48.818;9.114;2023-04-28T07:59:40;1.20;;;1.20;;
11651;SDS011;5882;48.818;9.114;2023-04-28T08:02:26;1.27;;;1.23;;
11651;SDS011;5882;48.818;9.114;2023-04-28T08:05:11;1.33;;;1.27;;
11651;SDS011;5882;48.818;9.114;2023-04-28T08:07:58;1.77;;;1.67;;
11651;SDS011;5882;48.818;9.114;2023-04-28T08:10:43;1.50;;;1.40;;
11651;SDS011;5882;48.818;9.114;2023-04-28T08:13:28;1.50;;;1.40;;
11651;SDS011;5882;48.818;9.114;2023-04-28T08:16:13;1.55;;;1.45;;
11651;SDS011;5882;48.818;9.114;2023-04-28T08:18:59;1.80;;;1.70;;
11651;SDS011;5882;48.818;9.114;2023-04-28T08:21:44;2.22;;;2.03;;
11651;SDS011;5882;48.818;9.114;2023-04-28T08:24:30;2.30;;;1.77;;
11651;SDS011;5882;48.818;9.114;2023-04-28T08:27:16;1.77;;;1.67;;
11651;SDS011;5882;48.818;9.114;2023-04-28T08:30:01;2.13;;;1.92;;
11651;SDS011;5882;48.818;9.114;2023-04-28T08:32:47;1.73;;;1.63;;
11651;SDS011;5882;48.818;9.114;2023-04-28T08:35:32;1.95;;;1.80;;
11651;SDS011;5882;48.818;9.114;2023-04-28T08:38:17;2.10;;;1.90;;
11651;SDS011;5882;48.818;9.114;2023-04-28T08:41:06;3.20;;;1.98;;
11651;SDS011;5882;48.818;9.114;2023-04-28T08:43:52;1.73;;;1.63;;
11651;SDS011;5882;48.818;9.114;2023-04-28T08:46:38;1.73;;;1.63;;
11651;SDS011;5882;48.818;9.114;2023-04-28T08:49:26;1.90;;;1.80;;
11651;SDS011;5882;48.818;9.114;2023-04-28T08:52:16;2.08;;;1.88;;
11651;SDS011;5882;48.818;9.114;2023-04-28T08:55:06;1.75;;;1.65;;
11651;SDS011;5882;48.818;9.114;2023-04-28T08:57:53;1.88;;;1.77;;
11651;SDS011;5882;48.818;9.114;2023-04-28T09:00:40;1.77;;;1.65;;
11651;SDS011;5882;48.818;9.114;2023-04-28T09:03:25;1.65;;;1.55;;
11651;SDS011;5882;48.818;9.114;2023-04-28T09:06:10;1.80;;;1.70;;
11651;SDS011;5882;48.818;9.114;2023-04-28T09:08:55;1.52;;;1.42;;
11651;SDS011;5882;48.818;9.114;2023-04-28T09:11:49;1.45;;;1.35;;
11651;SDS011;5882;48.818;9.114;2023-04-28T09:14:36;1.85;;;1.45;;
11651;SDS011;5882;48.818;9.114;2023-04-28T09:17:21;1.52;;;1.42;;
11651;SDS011;5882;48.818;9.114;2023-04-28T09:20:17;1.48;;;1.38;;
11651;SDS011;5882;48.818;9.114;2023-04-28T09:23:12;1.85;;;1.50;;
11651;SDS011;5882;48.818;9.114;2023-04-28T09:25:58;1.40;;;1.30;;
11651;SDS011;5882;48.818;9.114;2023-04-28T09:28:43;1.60;;;1.50;;
11651;SDS011;5882;48.818;9.114;2023-04-28T09:31:30;1.48;;;1.38;;
11651;SDS011;5882;48.818;9.114;2023-04-28T09:34:15;1.50;;;1.40;;
11651;SDS011;5882;48.818;9.114;2023-04-28T09:37:02;1.40;;;1.30;;
11651;SDS011;5882;48.818;9.114;2023-04-28T09:40:01;1.58;;;1.48;;
11651;SDS011;5882;48.818;9.114;2023-04-28T09:42:47;1.35;;;1.30;;
11651;SDS011;5882;48.818;9.114;2023-04-28T09:45:34;1.70;;;1.58;;
11651;SDS011;5882;48.818;9.114;2023-04-28T09:48:27;1.13;;;1.13;;
11651;SDS011;5882;48.818;9.114;2023-04-28T09:51:19;1.63;;;1.52;;
11651;SDS011;5882;48.818;9.114;2023-04-28T09:54:04;1.40;;;1.30;;
11651;SDS011;5882;48.818;9.114;2023-04-28T09:56:49;1.63;;;1.48;;
11651;SDS011;5882;48.818;9.114;2023-04-28T09:59:35;1.60;;;1.50;;
11651;SDS011;5882;48.818;9.114;2023-04-28T10:02:22;1.38;;;1.27;;
11651;SDS011;5882;48.818;9.114;2023-04-28T10:05:09;1.42;;;1.33;;
11651;SDS011;5882;48.818;9.114;2023-04-28T10:07:55;1.52;;;1.42;;
11651;SDS011;5882;48.818;9.114;2023-04-28T10:10:41;1.35;;;1.25;;
11651;SDS011;5882;48.818;9.114;2023-04-28T10:13:29;0.90;;;0.90;;
11651;SDS011;5882;48.818;9.114;2023-04-28T10:16:16;0.93;;;0.93;;
11651;SDS011;5882;48.818;9.114;2023-04-28T10:19:04;0.68;;;0.68;;
11651;SDS011;5882;48.818;9.114;2023-04-28T10:21:54;0.80;;;0.80;;
11651;SDS011;5882;48.818;9.114;2023-04-28T10:24:46;0.82;;;0.82;;
11651;SDS011;5882;48.818;9.114;2023-04-28T10:27:34;0.80;;;0.80;;
11651;SDS011;5882;48.818;9.114;2023-04-28T10:30:22;0.80;;;0.80;;
11651;SDS011;5882;48.818;9.114;2023-04-28T10:33:23;0.80;;;0.80;;
11651;SDS011;5882;48.818;9.114;2023-04-28T10:36:10;0.80;;;0.80;;
11651;SDS011;5882;48.818;9.114;2023-04-28T10:39:11;0.80;;;0.80;;
11651;SDS011;5882;48.818;9.114;2023-04-28T10:41:56;0.70;;;0.70;;
11651;SDS011;5882;48.818;9.114;2023-04-28T10:44:42;0.73;;;0.73;;
11651;SDS011;5882;48.818;9.114;2023-04-28T10:47:27;0.70;;;0.70;;
11651;SDS011;5882;48.818;9.114;2023-04-28T10:50:12;0.75;;;0.75;;
11651;SDS011;5882;48.818;9.114;2023-04-28T10:52:58;0.60;;;0.60;;
11651;SDS011;5882;48.818;9.114;2023-04-28T10:55:44;0.60;;;0.60;;
11651;SDS011;5882;48.818;9.114;2023-04-28T10:58:49;0.70;;;0.70;;
11651;SDS011;5882;48.818;9.114;2023-04-28T11:01:34;0.60;;;0.60;;
11651;SDS011;5882;48.818;9.114;2023-04-28T11:04:20;0.60;;;0.60;;
11651;SDS011;5882;48.818;9.114;2023-04-28T11:07:10;0.68;;;0.68;;
11651;SDS011;5882;48.818;9.114;2023-04-28T11:09:57;0.75;;;0.75;;
11651;SDS011;5882;48.818;9.114;2023-04-28T11:15:44;0.60;;;0.60;;
11651;SDS011;5882;48.818;9.114;2023-04-28T11:18:59;0.70;;;0.70;;
11651;SDS011;5882;48.818;9.114;2023-04-28T11:21:47;0.60;;;0.60;;
11651;SDS011;5882;48.818;9.114;2023-04-28T11:24:33;0.70;;;0.70;;
11651;SDS011;5882;48.818;9.114;2023-04-28T11:27:22;0.60;;;0.60;;
11651;SDS011;5882;48.818;9.114;2023-04-28T11:30:18;0.60;;;0.60;;
11651;SDS011;5882;48.818;9.114;2023-04-28T11:33:05;0.70;;;0.70;;
11651;SDS011;5882;48.818;9.114;2023-04-28T11:35:51;0.60;;;0.60;;
11651;SDS011;5882;48.818;9.114;2023-04-28T11:38:43;0.60;;;0.60;;
11651;SDS011;5882;48.818;9.114;2023-04-28T11:41:28;0.70;;;0.70;;
11651;SDS011;5882;48.818;9.114;2023-04-28T11:44:17;0.70;;;0.70;;
11651;SDS011;5882;48.818;9.114;2023-04-28T11:47:05;0.70;;;0.70;;
11651;SDS011;5882;48.818;9.114;2023-04-28T11:49:55;0.80;;;0.80;;
11651;SDS011;5882;48.818;9.114;2023-04-28T11:52:49;0.75;;;0.75;;
11651;SDS011;5882;48.818;9.114;2023-04-28T11:55:37;0.65;;;0.65;;
11651;SDS011;5882;48.818;9.114;2023-04-28T11:58:25;0.70;;;0.70;;
11651;SDS011;5882;48.818;9.114;2023-04-28T12:01:11;0.60;;;0.60;;
11651;SDS011;5882;48.818;9.114;2023-04-28T12:03:58;0.70;;;0.70;;
11651;SDS011;5882;48.818;9.114;2023-04-28T12:06:45;0.68;;;0.68;;
11651;SDS011;5882;48.818;9.114;2023-04-28T12:09:30;0.70;;;0.70;;
11651;SDS011;5882;48.818;9.114;2023-04-28T12:12:26;0.73;;;0.73;;
11651;SDS011;5882;48.818;9.114;2023-04-28T12:15:11;0.80;;;0.80;;
11651;SDS011;5882;48.818;9.114;2023-04-28T12:17:57;0.70;;;0.70;;
11651;SDS011;5882;48.818;9.114;2023-04-28T12:20:53;0.73;;;0.73;;
11651;SDS011;5882;48.818;9.114;2023-04-28T12:23:39;0.70;;;0.70;;
11651;SDS011;5882;48.818;9.114;2023-04-28T12:26:25;0.60;;;0.60;;
11651;SDS011;5882;48.818;9.114;2023-04-28T12:32:17;0.73;;;0.73;;
11651;SDS011;5882;48.818;9.114;2023-04-28T12:35:03;0.77;;;0.77;;
11651;SDS011;5882;48.818;9.114;2023-04-28T12:37:51;0.70;;;0.70;;
11651;SDS011;5882;48.818;9.114;2023-04-28T12:40:38;0.80;;;0.80;;
11651;SDS011;5882;48.818;9.114;2023-04-28T12:43:23;0.90;;;0.90;;
11651;SDS011;5882;48.818;9.114;2023-04-28T12:46:12;0.80;;;0.80;;
11651;SDS011;5882;48.818;9.114;2023-04-28T12:48:58;0.80;;;0.80;;
11651;SDS011;5882;48.818;9.114;2023-04-28T12:51:45;0.95;;;0.95;;
11651;SDS011;5882;48.818;9.114;2023-04-28T12:54:31;0.82;;;0.80;;
11651;SDS011;5882;48.818;9.114;2023-04-28T13:04:57;0.70;;;0.70;;
11651;SDS011;5882;48.818;9.114;2023-04-28T13:07:42;1.10;;;0.88;;
11651;SDS011;5882;48.818;9.114;2023-04-28T13:10:30;0.80;;;0.80;;
11651;SDS011;5882;48.818;9.114;2023-04-28T13:13:20;0.95;;;0.95;;
11651;SDS011;5882;48.818;9.114;2023-04-28T13:16:06;0.77;;;0.77;;
11651;SDS011;5882;48.818;9.114;2023-04-28T13:18:54;0.60;;;0.60;;
11651;SDS011;5882;48.818;9.114;2023-04-28T13:21:41;0.70;;;0.70;;
11651;SDS011;5882;48.818;9.114;2023-04-28T13:24:27;0.77;;;0.77;;
11651;SDS011;5882;48.818;9.114;2023-04-28T13:27:13;0.80;;;0.80;;
11651;SDS011;5882;48.818;9.114;2023-04-28T13:29:58;0.90;;;0.90;;
11651;SDS011;5882;48.818;9.114;2023-04-28T13:32:46;0.85;;;0.85;;
11651;SDS011;5882;48.818;9.114;2023-04-28T13:35:31;0.80;;;0.80;;
11651;SDS011;5882;48.818;9.114;2023-04-28T13:41:19;0.82;;;0.82;;
11651;SDS011;5882;48.818;9.114;2023-04-28T13:44:04;0.80;;;0.80;;
11651;SDS011;5882;48.818;9.114;2023-04-28T13:46:50;0.70;;;0.70;;
11651;SDS011;5882;48.818;9.114;2023-04-28T13:49:36;0.80;;;0.80;;
11651;SDS011;5882;48.818;9.114;2023-04-28T13:52:22;1.00;;;0.85;;
11651;SDS011;5882;48.818;9.114;2023-04-28T13:55:18;0.80;;;0.80;;
11651;SDS011;5882;48.818;9.114;2023-04-28T13:58:11;0.75;;;0.75;;
11651;SDS011;5882;48.818;9.114;2023-04-28T14:00:57;0.82;;;0.82;;
11651;SDS011;5882;48.818;9.114;2023-04-28T14:03:42;0.80;;;0.80;;
11651;SDS011;5882;48.818;9.114;2023-04-28T14:06:28;0.88;;;0.88;;
11651;SDS011;5882;48.818;9.114;2023-04-28T14:09:13;1.10;;;1.10;;
11651;SDS011;5882;48.818;9.114;2023-04-28T14:11:59;1.00;;;1.00;;
11651;SDS011;5882;48.818;9.114;2023-04-28T14:14:46;0.85;;;0.85;;
11651;SDS011;5882;48.818;9.114;2023-04-28T14:17:32;0.95;;;0.95;;
11651;SDS011;5882;48.818;9.114;2023-04-28T14:20:17;1.10;;;1.10;;
11651;SDS011;5882;48.818;9.114;2023-04-28T14:23:03;0.90;;;0.90;;
11651;SDS011;5882;48.818;9.114;2023-04-28T14:25:48;1.38;;;1.27;;
11651;SDS011;5882;48.818;9.114;2023-04-28T14:28:33;1.38;;;1.27;;
11651;SDS011;5882;48.818;9.114;2023-04-28T14:31:20;1.48;;;1.38;;
11651;SDS011;5882;48.818;9.114;2023-04-28T14:34:05;1.63;;;1.52;;
11651;SDS011;5882;48.818;9.114;2023-04-28T14:36:50;1.27;;;1.17;;
11651;SDS011;5882;48.818;9.114;2023-04-28T14:39:36;1.33;;;1.23;;
11651;SDS011;5882;48.818;9.114;2023-04-28T14:42:21;1.58;;;1.00;;
11651;SDS011;5882;48.818;9.114;2023-04-28T14:45:11;5.15;;;3.80;;
11651;SDS011;5882;48.818;9.114;2023-04-28T14:47:57;1.48;;;1.38;;
11651;SDS011;5882;48.818;9.114;2023-04-28T14:50:42;0.73;;;0.73;;
11651;SDS011;5882;48.818;9.114;2023-04-28T14:53:29;0.80;;;0.80;;
11651;SDS011;5882;48.818;9.114;2023-04-28T14:56:14;0.98;;;0.98;;
11651;SDS011;5882;48.818;9.114;2023-04-28T14:59:00;0.77;;;0.77;;
11651;SDS011;5882;48.818;9.114;2023-04-28T15:01:45;0.70;;;0.70;;
11651;SDS011;5882;48.818;9.114;2023-04-28T15:04:32;0.60;;;0.60;;
11651;SDS011;5882;48.818;9.114;2023-04-28T15:07:17;0.70;;;0.70;;
11651;SDS011;5882;48.818;9.114;2023-04-28T15:10:03;0.80;;;0.80;;
11651;SDS011;5882;48.818;9.114;2023-04-28T15:12:48;0.80;;;0.80;;
11651;SDS011;5882;48.818;9.114;2023-04-28T15:15:34;0.77;;;0.77;;
11651;SDS011;5882;48.818;9.114;2023-04-28T15:18:22;0.80;;;0.80;;
11651;SDS011;5882;48.818;9.114;2023-04-28T15:21:10;1.65;;;1.52;;
11651;SDS011;5882;48.818;9.114;2023-04-28T15:23:55;0.65;;;0.65;;
11651;SDS011;5882;48.818;9.114;2023-04-28T15:26:42;1.10;;;1.00;;
11651;SDS011;5882;48.818;9.114;2023-04-28T15:29:27;1.55;;;1.33;;
11651;SDS011;5882;48.818;9.114;2023-04-28T15:32:12;0.73;;;0.73;;
11651;SDS011;5882;48.818;9.114;2023-04-28T15:34:58;1.23;;;1.20;;
11651;SDS011;5882;48.818;9.114;2023-04-28T15:37:47;0.60;;;0.60;;
11651;SDS011;5882;48.818;9.114;2023-04-28T15:40:36;0.60;;;0.60;;
11651;SDS011;5882;48.818;9.114;2023-04-28T15:43:22;0.60;;;0.60;;
11651;SDS011;5882;48.818;9.114;2023-04-28T15:46:08;0.60;;;0.60;;
11651;SDS011;5882;48.818;9.114;2023-04-28T15:48:54;0.60;;;0.60;;
11651;SDS011;5882;48.818;9.114;2023-04-28T15:51:39;0.60;;;0.60;;
11651;SDS011;5882;48.818;9.114;2023-04-28T15:54:26;0.60;;;0.60;;
11651;SDS011;5882;48.818;9.114;2023-04-28T15:57:12;0.60;;;0.60;;
11651;SDS011;5882;48.818;9.114;2023-04-28T15:59:57;0.60;;;0.60;;
11651;SDS011;5882;48.818;9.114;2023-04-28T16:02:42;0.70;;;0.70;;
11651;SDS011;5882;48.818;9.114;2023-04-28T16:05:27;0.50;;;0.50;;
11651;SDS011;5882;48.818;9.114;2023-04-28T16:08:13;0.60;;;0.60;;
11651;SDS011;5882;48.818;9.114;2023-04-28T16:11:00;0.60;;;0.60;;
11651;SDS011;5882;48.818;9.114;2023-04-28T16:13:46;0.50;;;0.50;;
11651;SDS011;5882;48.818;9.114;2023-04-28T16:16:32;0.60;;;0.60;;
11651;SDS011;5882;48.818;9.114;2023-04-28T16:19:17;0.60;;;0.60;;
11651;SDS011;5882;48.818;9.114;2023-04-28T16:22:02;0.60;;;0.60;;
11651;SDS011;5882;48.818;9.114;2023-04-28T16:24:47;0.60;;;0.60;;
11651;SDS011;5882;48.818;9.114;2023-04-28T16:27:34;0.80;;;0.80;;
11651;SDS011;5882;48.818;9.114;2023-04-28T16:30:20;1.25;;;1.02;;
11651;SDS011;5882;48.818;9.114;2023-04-28T16:33:05;1.15;;;1.05;;
11651;SDS011;5882;48.818;9.114;2023-04-28T16:35:54;0.60;;;0.60;;
11651;SDS011;5882;48.818;9.114;2023-04-28T16:38:39;0.60;;;0.60;;
11651;SDS011;5882;48.818;9.114;2023-04-28T16:41:24;0.70;;;0.70;;
11651;SDS011;5882;48.818;9.114;2023-04-28T16:44:12;0.70;;;0.70;;
11651;SDS011;5882;48.818;9.114;2023-04-28T16:46:57;0.60;;;0.60;;
11651;SDS011;5882;48.818;9.114;2023-04-28T16:49:43;0.70;;;0.70;;
11651;SDS011;5882;48.818;9.114;2023-04-28T16:52:29;0.60;;;0.60;;
11651;SDS011;5882;48.818;9.114;2023-04-28T16:55:14;0.60;;;0.60;;
11651;SDS011;5882;48.818;9.114;2023-04-28T16:58:03;0.60;;;0.60;;
11651;SDS011;5882;48.818;9.114;2023-04-28T17:00:50;0.70;;;0.70;;
11651;SDS011;5882;48.818;9.114;2023-04-28T17:03:36;0.60;;;0.60;;
11651;SDS011;5882;48.818;9.114;2023-04-28T17:06:24;0.70;;;0.70;;
11651;SDS011;5882;48.818;9.114;2023-04-28T17:09:10;0.70;;;0.70;;
11651;SDS011;5882;48.818;9.114;2023-04-28T17:11:56;0.60;;;0.60;;
11651;SDS011;5882;48.818;9.114;2023-04-28T17:14:41;0.70;;;0.70;;
11651;SDS011;5882;48.818;9.114;2023-04-28T17:17:28;0.70;;;0.70;;
11651;SDS011;5882;48.818;9.114;2023-04-28T17:20:14;0.95;;;0.93;;
11651;SDS011;5882;48.818;9.114;2023-04-28T17:23:02;0.70;;;0.70;;